createdAt,value
2022-11-16T00:01:54.315Z,95.70
2022-11-16T00:04:39.686Z,95.80
2022-11-16T00:07:27.808Z,95.70
2022-11-16T00:10:13.429Z,95.70
2022-11-16T00:12:58.970Z,95.70
2022-11-16T00:16:04.498Z,95.80
2022-11-16T00:18:59.606Z,95.70
2022-11-16T00:21:44.920Z,95.80
2022-11-16T00:24:30.451Z,95.80
2022-11-16T00:27:15.946Z,95.70
2022-11-16T00:30:02.090Z,95.90
2022-11-16T00:32:47.691Z,95.80
2022-11-16T00:35:37.469Z,95.90
2022-11-16T00:38:23.290Z,96.00
2022-11-16T00:41:09.538Z,96.10
2022-11-16T00:43:55.085Z,96.30
2022-11-16T00:46:41.294Z,96.20
2022-11-16T00:49:26.879Z,96.00
2022-11-16T00:52:12.596Z,96.10
2022-11-16T00:54:57.797Z,96.30
2022-11-16T00:57:43.659Z,96.30
2022-11-16T01:00:29.415Z,96.30
2022-11-16T01:03:15.607Z,96.40
2022-11-16T01:06:05.559Z,96.40
2022-11-16T01:08:51.285Z,96.60
2022-11-16T01:11:55.849Z,96.60
2022-11-16T01:14:46.602Z,96.30
2022-11-16T01:17:32.106Z,96.20
2022-11-16T01:20:20.547Z,96.30
2022-11-16T01:23:06.097Z,96.60
2022-11-16T01:26:06.399Z,96.60
2022-11-16T01:28:54.169Z,96.80
2022-11-16T01:31:39.993Z,96.90
2022-11-16T01:34:25.135Z,97.10
2022-11-16T01:37:16.235Z,97.00
2022-11-16T01:40:01.624Z,97.00
2022-11-16T01:42:48.119Z,97.00
2022-11-16T01:45:39.151Z,97.10
2022-11-16T01:48:30.102Z,97.10
2022-11-16T01:51:16.490Z,97.20
2022-11-16T01:54:06.207Z,97.10
2022-11-16T01:56:55.566Z,97.00
2022-11-16T02:00:09.490Z,97.20
2022-11-16T02:03:21.670Z,97.20
2022-11-16T02:06:26.362Z,97.20
2022-11-16T02:09:57.039Z,97.20
2022-11-16T02:12:53.681Z,97.20
2022-11-16T02:16:17.246Z,97.20
2022-11-16T02:19:17.169Z,97.30
2022-11-16T02:22:47.526Z,97.30
2022-11-16T02:25:39.848Z,97.20
2022-11-16T02:28:31.042Z,97.20
2022-11-16T02:31:32.847Z,97.20
2022-11-16T02:34:20.987Z,97.10
2022-11-16T02:37:12.627Z,97.20
2022-11-16T02:40:01.310Z,97.30
2022-11-16T02:42:58.094Z,97.40
2022-11-16T02:45:51.228Z,97.50
2022-11-16T02:48:45.582Z,97.60
2022-11-16T02:51:33.617Z,97.60
2022-11-16T02:54:20.666Z,97.50
2022-11-16T02:57:28.028Z,97.60
2022-11-16T03:00:21.633Z,97.60
2022-11-16T03:03:25.598Z,97.60
2022-11-16T03:06:23.080Z,97.70
2022-11-16T03:09:22.417Z,97.70
2022-11-16T03:12:12.138Z,97.80
2022-11-16T03:15:07.219Z,97.80
2022-11-16T03:17:53.921Z,97.80
2022-11-16T03:20:43.712Z,97.80
2022-11-16T03:23:29.702Z,97.80
2022-11-16T03:26:20.150Z,97.80
2022-11-16T03:29:17.351Z,97.80
2022-11-16T03:32:19.049Z,97.80
2022-11-16T03:35:10.745Z,97.80
2022-11-16T03:37:59.214Z,97.70
2022-11-16T03:40:51.954Z,97.70
2022-11-16T03:43:38.997Z,97.70
2022-11-16T03:46:25.642Z,97.70
2022-11-16T03:49:11.203Z,98.00
2022-11-16T03:51:58.205Z,97.50
2022-11-16T03:54:44.038Z,97.50
2022-11-16T03:57:30.397Z,97.40
2022-11-16T04:00:18.558Z,97.40
2022-11-16T04:03:04.149Z,97.60
2022-11-16T04:06:08.036Z,97.60
2022-11-16T04:09:12.903Z,97.50
2022-11-16T04:12:16.651Z,97.40
2022-11-16T04:15:20.751Z,97.50
2022-11-16T04:18:26.139Z,97.40
2022-11-16T04:21:52.725Z,97.40
2022-11-16T04:24:41.945Z,97.40
2022-11-16T04:27:50.369Z,97.40
2022-11-16T04:30:55.910Z,97.60
2022-11-16T04:34:00.456Z,97.60
2022-11-16T04:37:04.847Z,97.60
2022-11-16T04:39:50.434Z,97.60
2022-11-16T04:42:36.014Z,97.50
2022-11-16T04:45:42.408Z,97.40
2022-11-16T04:48:28.614Z,97.40
2022-11-16T04:51:14.615Z,97.50
2022-11-16T04:54:00.403Z,97.50
2022-11-16T04:56:46.115Z,97.60
2022-11-16T04:59:56.756Z,97.60
2022-11-16T05:02:45.951Z,97.60
2022-11-16T05:05:31.343Z,97.60
2022-11-16T05:08:21.210Z,97.60
2022-11-16T05:11:09.311Z,97.60
2022-11-16T05:13:54.482Z,97.50
2022-11-16T05:16:39.993Z,97.60
2022-11-16T05:19:44.095Z,97.60
2022-11-16T05:22:30.003Z,97.70
2022-11-16T05:25:16.145Z,97.70
2022-11-16T05:28:01.548Z,97.80
2022-11-16T05:30:48.995Z,97.70
2022-11-16T05:33:41.158Z,97.70
2022-11-16T05:36:28.663Z,97.60
2022-11-16T05:39:14.246Z,97.50
2022-11-16T05:42:00.559Z,97.90
2022-11-16T05:44:46.154Z,97.50
2022-11-16T05:47:35.717Z,97.50
2022-11-16T05:50:21.659Z,97.40
2022-11-16T05:53:19.775Z,97.40
2022-11-16T05:56:06.906Z,97.30
2022-11-16T05:58:58.578Z,97.10
2022-11-16T06:01:44.348Z,97.00
2022-11-16T06:04:33.814Z,97.00
2022-11-16T06:07:19.221Z,97.00
2022-11-16T06:10:05.299Z,97.00
2022-11-16T06:12:51.881Z,96.90
2022-11-16T06:15:38.326Z,96.90
2022-11-16T06:18:26.828Z,97.20
2022-11-16T06:21:13.461Z,96.90
2022-11-16T06:23:59.407Z,96.80
2022-11-16T06:26:47.095Z,96.60
2022-11-16T06:29:32.558Z,96.70
2022-11-16T06:32:18.044Z,96.70
2022-11-16T06:35:04.683Z,96.80
2022-11-16T06:37:50.642Z,96.60
2022-11-16T06:40:39.758Z,96.70
2022-11-16T06:43:26.136Z,96.80
2022-11-16T06:46:12.105Z,96.70
2022-11-16T06:48:58.751Z,96.80
2022-11-16T06:51:46.462Z,97.00
2022-11-16T06:54:31.938Z,97.10
2022-11-16T06:57:18.666Z,97.10
2022-11-16T07:00:05.311Z,97.20
2022-11-16T07:02:52.778Z,97.20
2022-11-16T07:05:42.114Z,97.30
2022-11-16T07:08:31.767Z,97.30
2022-11-16T07:11:17.499Z,97.40
2022-11-16T07:14:03.518Z,97.50
2022-11-16T07:16:49.220Z,97.50
2022-11-16T07:19:36.850Z,97.40
2022-11-16T07:22:23.274Z,97.40
2022-11-16T07:25:09.880Z,97.50
2022-11-16T07:27:57.259Z,97.40
2022-11-16T07:30:44.602Z,97.30
2022-11-16T07:33:34.554Z,97.20
2022-11-16T07:36:46.041Z,97.30
2022-11-16T07:39:31.140Z,97.20
2022-11-16T07:42:20.087Z,97.10
2022-11-16T07:45:18.758Z,97.10
2022-11-16T07:48:14.218Z,97.10
2022-11-16T07:51:19.797Z,97.20
2022-11-16T07:54:22.835Z,97.20
2022-11-16T07:57:08.426Z,97.30
2022-11-16T07:59:53.976Z,97.40
2022-11-16T08:02:39.494Z,97.40
2022-11-16T08:05:26.962Z,97.60
2022-11-16T08:08:13.213Z,97.70
2022-11-16T08:11:05.511Z,97.70
2022-11-16T08:13:51.355Z,97.90
2022-11-16T08:16:37.862Z,97.90
2022-11-16T08:19:31.755Z,98.10
2022-11-16T08:22:17.301Z,98.30
2022-11-16T08:25:04.984Z,98.30
2022-11-16T08:27:50.582Z,98.50
2022-11-16T08:30:42.050Z,98.40
2022-11-16T08:33:30.275Z,98.50
2022-11-16T08:36:17.994Z,98.40
2022-11-16T08:39:04.439Z,98.50
2022-11-16T08:41:51.729Z,98.50
2022-11-16T08:44:36.898Z,98.40
2022-11-16T08:50:26.967Z,98.50
2022-11-16T08:53:15.171Z,98.50
2022-11-16T08:56:09.746Z,98.40
2022-11-16T08:58:58.933Z,98.40
2022-11-16T09:01:45.174Z,98.40
2022-11-16T09:04:35.762Z,98.40
2022-11-16T09:07:22.338Z,98.30
2022-11-16T09:10:08.240Z,98.20
2022-11-16T09:12:59.990Z,98.20
2022-11-16T09:15:45.470Z,98.20
2022-11-16T09:18:32.008Z,98.20
2022-11-16T09:21:29.249Z,98.20
2022-11-16T09:24:15.109Z,98.00
2022-11-16T09:27:01.499Z,97.50
2022-11-16T09:29:46.675Z,97.30
2022-11-16T09:32:32.172Z,97.10
2022-11-16T09:35:17.542Z,97.10
2022-11-16T09:38:03.791Z,97.10
2022-11-16T09:40:49.093Z,96.90
2022-11-16T09:43:55.389Z,96.70
2022-11-16T09:46:44.798Z,96.60
2022-11-16T09:49:44.034Z,96.50
2022-11-16T09:52:39.066Z,96.40
2022-11-16T09:56:00.559Z,96.80
2022-11-16T09:58:51.254Z,96.20
2022-11-16T10:02:06.934Z,96.00
2022-11-16T10:04:58.713Z,95.90
2022-11-16T10:07:48.525Z,95.70
2022-11-16T10:10:38.464Z,95.70
2022-11-16T10:14:03.838Z,95.80
2022-11-16T10:17:12.978Z,95.60
2022-11-16T10:20:15.285Z,95.50
2022-11-16T10:23:35.773Z,95.40
2022-11-16T10:26:50.567Z,95.50
2022-11-16T10:29:55.551Z,94.90
2022-11-16T10:32:50.691Z,94.80
2022-11-16T10:35:40.585Z,94.60
2022-11-16T10:38:33.118Z,94.40
2022-11-16T10:41:31.113Z,94.50
2022-11-16T10:44:39.769Z,94.20
2022-11-16T10:47:36.718Z,94.00
2022-11-16T10:50:40.833Z,94.10
2022-11-16T10:53:46.786Z,93.20
2022-11-16T10:56:40.358Z,92.50
2022-11-16T10:59:42.597Z,93.00
2022-11-16T11:02:36.826Z,92.80
2022-11-16T11:05:22.826Z,91.30
2022-11-16T11:08:12.008Z,91.60
2022-11-16T11:11:23.189Z,90.70
2022-11-16T11:14:14.712Z,89.90
2022-11-16T11:17:12.205Z,90.10
2022-11-16T11:20:21.737Z,85.50
2022-11-16T11:23:22.550Z,83.70
2022-11-16T11:26:11.437Z,80.50
2022-11-16T11:28:57.030Z,77.00
2022-11-16T11:31:49.595Z,74.10
2022-11-16T11:34:48.198Z,74.40
2022-11-16T11:37:36.334Z,73.40
2022-11-16T11:40:26.318Z,75.10
2022-11-16T11:43:23.674Z,76.00
2022-11-16T11:46:21.258Z,77.70
2022-11-16T11:49:37.232Z,79.10
2022-11-16T11:52:42.038Z,80.10
2022-11-16T11:55:27.825Z,81.00
2022-11-16T11:58:18.752Z,81.10
2022-11-16T12:01:35.007Z,79.10
2022-11-16T12:04:23.170Z,80.80
2022-11-16T12:07:40.162Z,79.90
2022-11-16T12:10:51.132Z,77.50
2022-11-16T12:14:00.973Z,69.50
2022-11-16T12:16:51.386Z,68.30
2022-11-16T12:20:15.701Z,65.90
2022-11-16T12:23:27.220Z,58.70
2022-11-16T12:26:50.195Z,56.30
2022-11-16T12:30:06.024Z,53.80
2022-11-16T12:33:10.025Z,55.70
2022-11-16T12:36:08.129Z,56.70
2022-11-16T12:39:16.879Z,55.00
2022-11-16T12:42:41.023Z,56.30
2022-11-16T12:45:39.469Z,58.90
2022-11-16T12:48:36.559Z,60.00
2022-11-16T12:51:49.710Z,62.20
2022-11-16T12:55:03.950Z,60.70
2022-11-16T12:58:07.731Z,62.90
2022-11-16T13:01:19.117Z,64.00
2022-11-16T13:04:31.537Z,63.80
2022-11-16T13:07:39.887Z,66.20
2022-11-16T13:10:30.240Z,65.90
2022-11-16T13:13:39.355Z,67.60
2022-11-16T13:16:25.135Z,67.60
2022-11-16T13:19:13.454Z,69.60
2022-11-16T13:22:21.586Z,71.40
2022-11-16T13:25:14.779Z,73.90
2022-11-16T13:28:33.535Z,71.10
2022-11-16T13:31:35.255Z,68.00
2022-11-16T13:34:37.817Z,67.50
2022-11-16T13:37:38.449Z,64.80
2022-11-16T13:43:37.111Z,55.30
2022-11-16T13:46:54.165Z,54.00
2022-11-16T13:49:43.278Z,55.20
2022-11-16T13:53:28.353Z,57.40
2022-11-16T13:56:02.110Z,58.00
2022-11-16T13:58:50.861Z,59.20
2022-11-16T14:01:57.003Z,60.40
2022-11-16T14:04:59.515Z,62.20
2022-11-16T14:07:49.494Z,63.30
2022-11-16T14:10:35.052Z,64.50
2022-11-16T14:13:51.518Z,65.60
2022-11-16T14:16:45.774Z,66.90
2022-11-16T14:19:44.322Z,68.20
2022-11-16T14:22:52.917Z,68.20
2022-11-16T14:25:41.650Z,68.80
2022-11-16T14:28:54.128Z,68.90
2022-11-16T14:32:17.023Z,69.20
2022-11-16T14:35:06.202Z,70.00
2022-11-16T14:38:02.850Z,70.60
2022-11-16T14:40:56.241Z,71.90
2022-11-16T14:43:50.051Z,73.90
2022-11-16T14:46:38.216Z,71.50
2022-11-16T14:49:25.970Z,68.70
2022-11-16T14:52:17.165Z,66.80
2022-11-16T14:55:08.289Z,67.00
2022-11-16T14:58:20.339Z,68.00
2022-11-16T15:01:12.138Z,68.30
2022-11-16T15:04:07.033Z,68.60
2022-11-16T15:07:03.061Z,69.20
2022-11-16T15:09:54.161Z,70.70
2022-11-16T15:12:42.776Z,71.80
2022-11-16T15:15:30.260Z,72.20
2022-11-16T15:18:21.935Z,72.90
2022-11-16T15:21:21.302Z,73.40
2022-11-16T15:24:29.392Z,74.00
2022-11-16T15:27:36.522Z,74.10
2022-11-16T15:30:49.558Z,74.90
2022-11-16T15:33:39.303Z,76.10
2022-11-16T15:36:39.454Z,75.80
2022-11-16T15:39:31.864Z,76.30
2022-11-16T15:42:18.521Z,77.00
2022-11-16T15:45:18.489Z,77.80
2022-11-16T15:48:05.198Z,78.10
2022-11-16T15:51:05.086Z,78.60
2022-11-16T15:53:55.078Z,79.60
2022-11-16T15:56:41.582Z,79.80
2022-11-16T15:59:34.155Z,80.10
2022-11-16T16:02:22.390Z,80.50
2022-11-16T16:05:40.829Z,80.70
2022-11-16T16:08:37.767Z,81.20
2022-11-16T16:11:26.781Z,81.50
2022-11-16T16:14:35.268Z,81.90
2022-11-16T16:17:32.682Z,82.50
2022-11-16T16:20:20.641Z,83.10
2022-11-16T16:23:19.028Z,83.40
2022-11-16T16:26:08.494Z,83.20
2022-11-16T16:28:54.027Z,83.50
2022-11-16T16:31:39.379Z,83.80
2022-11-16T16:34:25.101Z,84.20
2022-11-16T16:37:11.857Z,84.60
2022-11-16T16:39:57.869Z,85.00
2022-11-16T16:42:51.126Z,85.50
2022-11-16T16:45:43.392Z,85.70
2022-11-16T16:48:29.552Z,86.50
2022-11-16T16:51:15.709Z,87.00
2022-11-16T16:54:13.959Z,87.00
2022-11-16T16:57:01.378Z,87.10
2022-11-16T16:59:48.226Z,87.70
2022-11-16T17:02:33.565Z,88.00
2022-11-16T17:05:18.930Z,88.10
2022-11-16T17:08:04.762Z,88.40
2022-11-16T17:10:50.363Z,88.70
2022-11-16T17:13:36.059Z,89.00
2022-11-16T17:16:22.466Z,89.70
2022-11-16T17:19:07.631Z,89.90
2022-11-16T17:21:53.471Z,90.30
2022-11-16T17:24:38.832Z,90.00
2022-11-16T17:27:26.049Z,90.10
2022-11-16T17:30:14.494Z,90.20
2022-11-16T17:33:00.208Z,90.30
2022-11-16T17:35:56.072Z,90.40
2022-11-16T17:38:41.755Z,90.70
2022-11-16T17:41:27.998Z,90.70
2022-11-16T17:44:18.568Z,91.00
2022-11-16T17:47:07.522Z,90.70
2022-11-16T17:49:53.073Z,90.80
2022-11-16T17:52:38.566Z,90.80
2022-11-16T17:55:23.760Z,90.80
2022-11-16T17:58:09.313Z,90.80
2022-11-16T18:00:56.729Z,90.90
2022-11-16T18:03:44.635Z,91.00
2022-11-16T18:06:30.037Z,91.00
2022-11-16T18:09:15.752Z,91.20
2022-11-16T18:12:00.881Z,91.20
2022-11-16T18:15:21.334Z,91.30
2022-11-16T18:17:57.650Z,91.40
2022-11-16T18:20:43.354Z,91.60
2022-11-16T18:23:29.789Z,91.50
2022-11-16T18:26:18.730Z,91.50
2022-11-16T18:29:04.497Z,91.60
2022-11-16T18:31:49.743Z,91.50
2022-11-16T18:34:37.622Z,91.50
2022-11-16T18:37:22.894Z,91.60
2022-11-16T18:40:09.554Z,91.60
2022-11-16T18:42:55.262Z,91.70
2022-11-16T18:45:40.739Z,91.60
2022-11-16T18:48:26.503Z,91.70
2022-11-16T18:51:12.641Z,91.70
2022-11-16T18:53:58.107Z,91.70
2022-11-16T18:56:43.472Z,91.70
2022-11-16T18:59:29.063Z,91.70
2022-11-16T19:02:14.555Z,92.10
2022-11-16T19:05:02.726Z,91.80
2022-11-16T19:07:48.055Z,91.80
2022-11-16T19:10:37.601Z,91.90
2022-11-16T19:13:22.869Z,92.00
2022-11-16T19:16:10.641Z,92.00
2022-11-16T19:18:56.065Z,92.00
2022-11-16T19:21:41.974Z,92.00
2022-11-16T19:24:30.625Z,92.00
2022-11-16T19:27:16.661Z,92.10
2022-11-16T19:30:02.050Z,92.20
2022-11-16T19:32:47.503Z,92.30
2022-11-16T19:35:32.973Z,92.20
2022-11-16T19:38:18.496Z,92.20
2022-11-16T19:41:04.575Z,92.10
2022-11-16T19:43:52.891Z,92.10
2022-11-16T19:46:38.112Z,92.10
2022-11-16T19:49:24.223Z,92.10
2022-11-16T19:52:09.852Z,92.20
2022-11-16T19:54:56.175Z,92.20
2022-11-16T19:57:41.884Z,92.30
2022-11-16T20:00:27.221Z,92.30
2022-11-16T20:03:12.529Z,92.30
2022-11-16T20:06:10.125Z,92.30
2022-11-16T20:09:02.109Z,92.40
2022-11-16T20:11:49.310Z,92.40
2022-11-16T20:14:34.654Z,92.40
2022-11-16T20:17:20.191Z,92.40
2022-11-16T20:20:06.263Z,92.40
2022-11-16T20:22:53.223Z,92.50
2022-11-16T20:25:41.842Z,92.50
2022-11-16T20:28:27.371Z,92.60
2022-11-16T20:31:18.015Z,92.60
2022-11-16T20:34:05.622Z,92.60
2022-11-16T20:36:51.338Z,92.60
2022-11-16T20:39:37.825Z,92.60
2022-11-16T20:42:24.128Z,92.60
2022-11-16T20:45:10.019Z,92.60
2022-11-16T20:47:55.160Z,92.60
2022-11-16T20:50:48.252Z,92.60
2022-11-16T20:53:34.524Z,92.70
2022-11-16T20:56:21.601Z,92.60
2022-11-16T20:59:07.055Z,92.60
2022-11-16T21:01:52.331Z,92.70
2022-11-16T21:04:38.000Z,92.60
2022-11-16T21:07:24.166Z,92.60
2022-11-16T21:10:18.992Z,92.60
2022-11-16T21:13:24.497Z,92.50
2022-11-16T21:16:11.714Z,92.50
2022-11-16T21:18:56.974Z,92.50
2022-11-16T21:21:42.671Z,92.60
2022-11-16T21:24:28.400Z,92.60
2022-11-16T21:27:13.857Z,92.60
2022-11-16T21:29:59.047Z,92.60
2022-11-16T21:32:44.490Z,92.60
2022-11-16T21:35:30.554Z,92.70
2022-11-16T21:38:15.916Z,92.60
2022-11-16T21:41:02.095Z,92.60
2022-11-16T21:43:48.505Z,92.60
2022-11-16T21:46:36.699Z,92.60
2022-11-16T21:49:21.730Z,92.60
2022-11-16T21:52:07.335Z,92.50
2022-11-16T21:54:59.151Z,92.40
2022-11-16T21:57:44.170Z,92.40
2022-11-16T22:00:29.902Z,92.40
2022-11-16T22:03:15.966Z,92.40
2022-11-16T22:06:22.376Z,92.50
2022-11-16T22:09:07.519Z,92.40
2022-11-16T22:11:55.474Z,92.40
2022-11-16T22:14:40.882Z,92.50
2022-11-16T22:17:27.081Z,92.60
2022-11-16T22:20:12.309Z,92.60
2022-11-16T22:22:57.743Z,92.60
2022-11-16T22:25:43.546Z,92.60
2022-11-16T22:28:29.274Z,92.70
2022-11-16T22:31:15.017Z,92.80
2022-11-16T22:34:00.507Z,92.90
2022-11-16T22:36:45.777Z,92.90
2022-11-16T22:39:33.599Z,92.90
2022-11-16T22:42:18.935Z,93.00
2022-11-16T22:45:04.966Z,93.20
2022-11-16T22:47:54.993Z,93.20
2022-11-16T22:50:43.127Z,93.30
2022-11-16T22:53:28.598Z,93.40
2022-11-16T22:56:14.030Z,93.40
2022-11-16T22:59:02.599Z,93.50
2022-11-16T23:01:47.859Z,93.50
2022-11-16T23:04:33.326Z,93.60
2022-11-16T23:07:18.597Z,93.50
2022-11-16T23:10:04.596Z,93.50
2022-11-16T23:13:08.922Z,93.60
2022-11-16T23:15:54.166Z,93.90
2022-11-16T23:18:39.690Z,93.70
2022-11-16T23:21:43.934Z,93.90
2022-11-16T23:24:47.806Z,93.90
2022-11-16T23:27:55.316Z,94.10
2022-11-16T23:30:41.792Z,94.20
2022-11-16T23:33:43.815Z,94.30
2022-11-16T23:36:29.084Z,94.40
2022-11-16T23:39:14.639Z,94.40
2022-11-16T23:42:18.788Z,94.50
2022-11-16T23:45:04.673Z,94.50
2022-11-16T23:47:50.109Z,94.60
2022-11-16T23:50:36.391Z,94.60
2022-11-16T23:53:21.602Z,94.60
2022-11-16T23:56:07.613Z,94.70
2022-11-16T23:58:57.434Z,94.70
